Texas General Land Office
 Texas General Land Office
 George P. Bush, Commissioner

 Oil Spill Prevention
 & Response

Texas Automated Buoy System
Real Time Ocean Observations
Supporting Oil Spill Prevention and
Response since 1995
Geochemical and Environmental Research Group

TABS Buoy W -- Texas Automated Buoy System

TABS Buoy W Conditions at 06/22/2018 23:00 UTC (06/22/2018 18:00 CDT)
28° 21.0420'N   96° 0.3480'W
AA3900 DCS - sensor depth 2m
Water Depth: 72 feet (21 meters)
Speed: 35.81 cm/s (0.70 kts) Direction: 63 °T (ENE) Water Temp: 29°C (84 °F)
System Voltage: 13.7 V Signal Strength: -1.8 dB Ping Count: 131
  


IMPORTANT: Notice to Mariners


Today's Velocity Data (download)

   Date   |  Time  |   East |   North|   Speed|  Dir | WaterT |
          |  (UTC) |  (cm/s)|  (cm/s)|  (cm/s)| (°T) |  (°C)  |
==========+========+========+========+========+======+========+
06/22/2018 04:30:00    -1.03     4.52     4.64  347.2   28.2
06/22/2018 05:00:00    -1.29     5.22     5.38  346.1   28.2
06/22/2018 05:30:00    -0.36     3.58     3.60  354.3   28.1
06/22/2018 06:00:00    -1.01     4.94     5.04  348.4   28.1
06/22/2018 06:30:00     2.92     4.82     5.64   31.2   28.1
06/22/2018 07:00:00     3.64     3.66     5.16   44.8   28.1
06/22/2018 07:30:00     3.25     3.01     4.43   47.2   28.1
06/22/2018 08:00:00     3.19     3.85     5.00   39.6   28.1
06/22/2018 08:30:00     2.75     1.89     3.34   55.5   28.1
06/22/2018 09:00:00     1.03     4.20     4.32   13.8   28.1
06/22/2018 09:30:00     1.85     4.92     5.26   20.6   28.1
06/22/2018 10:00:00     3.21     6.95     7.66   24.8   28.1
06/22/2018 10:30:00     2.27     6.19     6.59   20.1   28.1
06/22/2018 11:00:00     3.75     8.54     9.33   23.7   28.1
06/22/2018 11:30:00     2.73     6.02     6.61   24.4   28.1
06/22/2018 12:00:00     2.89     6.84     7.43   22.9   28.1
06/22/2018 12:30:00     3.35     8.20     8.86   22.2   28.0
06/22/2018 13:00:00     3.10     8.69     9.23   19.6   28.0
06/22/2018 13:30:00     5.95    12.05    13.44   26.3   28.0
06/22/2018 14:00:00     2.21    12.52    12.71   10.0   28.0
06/22/2018 14:30:00     7.96    10.96    13.55   36.0   28.0
06/22/2018 15:00:00     6.93    11.95    13.81   30.1   28.0
06/22/2018 15:30:00    13.60     9.10    16.36   56.2   28.1
06/22/2018 16:00:00    14.49    13.26    19.64   47.5   28.1
06/22/2018 16:30:00    21.00    14.93    25.77   54.6   28.2
06/22/2018 17:00:00    26.01    15.28    30.17   59.6   28.3
06/22/2018 17:30:00    23.33    13.90    27.16   59.2   28.4
06/22/2018 18:00:00    25.44    15.79    29.94   58.2   28.4
06/22/2018 18:30:00    27.35    15.23    31.30   60.9   28.5
06/22/2018 19:00:00    27.43    15.95    31.73   59.8   28.6
06/22/2018 19:30:00    31.12    16.92    35.42   61.5   28.6
06/22/2018 20:00:00    30.30    14.91    33.77   63.8   28.6
06/22/2018 20:30:00    30.32    15.61    34.10   62.8   28.6
06/22/2018 21:00:00    31.72    14.96    35.07   64.8   28.6
06/22/2018 21:30:00    32.16    17.75    36.73   61.1   28.8
06/22/2018 22:00:00    33.00    17.32    37.27   62.3   28.8
06/22/2018 22:30:00    32.69    18.25    37.44   60.8   28.8
06/22/2018 23:00:00    31.83    16.40    35.81   62.7   28.8



       
 

Today's Temperature - Salinity Data     (Download)


   Date   |  Time  |   Temp |   Cond |Salinity| Density|SoundVel|
          |  (UTC) |   (°C) | (ms/cm)|        | kg/m^3 |  (m/s) |
==========+========+========+========+========+========+========+